Time;durP1;ratioP1;P1;durP2;ratioP2;P2;SDS_P1;SDS_P2;PMS_P1;PMS_P2;Temp;Humidity;BMP_temperature;BMP_pressure;BME280_temperature;BME280_humidity;BME280_pressure;Samples;Min_cycle;Max_cycle;Signal;HPM_P1;HPM_P2
2024/01/28 00:00:14;;;;;;;20.63;7.30;;;;;;;;;;5064505;28;20140;-66
2024/01/28 00:02:39;;;;;;;10.25;6.57;;;;;;;;;;5050971;28;20999;-66
2024/01/28 00:05:05;;;;;;;14.75;6.40;;;;;;;;;;5051980;28;20031;-65
2024/01/28 00:07:30;;;;;;;14.05;7.43;;;;;;;;;;5061170;28;20034;-66
2024/01/28 00:09:55;;;;;;;9.35;6.30;;;;;;;;;;5064157;28;20066;-65
2024/01/28 00:12:20;;;;;;;13.98;7.35;;;;;;;;;;5054053;28;20020;-65
2024/01/28 00:14:45;;;;;;;11.98;6.18;;;;;;;;;;5057589;28;20027;-66
2024/01/28 00:17:11;;;;;;;13.02;5.93;;;;;;;;;;5059655;28;20837;-66
2024/01/28 00:19:36;;;;;;;13.05;7.07;;;;;;;;;;5061277;28;20912;-65
2024/01/28 00:22:01;;;;;;;11.15;6.05;;;;;;;;;;5065208;28;20860;-65
2024/01/28 00:24:27;;;;;;;9.82;6.25;;;;;;;;;;5058236;28;20941;-67
2024/01/28 00:26:53;;;;;;;11.68;5.93;;;;;;;;;;5059875;28;20231;-65
2024/01/28 00:29:20;;;;;;;18.85;6.18;;;;;;;;;;5060859;28;20878;-66
2024/01/28 00:31:45;;;;;;;11.55;5.82;;;;;;;;;;5052871;28;20094;-66
2024/01/28 00:34:10;;;;;;;9.98;6.03;;;;;;;;;;5057829;28;20970;-65
2024/01/28 00:36:36;;;;;;;12.35;6.55;;;;;;;;;;5055406;28;20101;-65
2024/01/28 00:39:02;;;;;;;13.30;5.40;;;;;;;;;;5058999;28;20028;-65
2024/01/28 00:41:29;;;;;;;10.75;6.20;;;;;;;;;;5060729;28;20474;-66
2024/01/28 00:43:54;;;;;;;8.95;6.10;;;;;;;;;;5063334;28;20134;-65
2024/01/28 00:46:20;;;;;;;11.73;6.18;;;;;;;;;;5058020;28;20032;-65
2024/01/28 00:48:46;;;;;;;10.05;5.57;;;;;;;;;;5057739;28;20910;-65
2024/01/28 00:51:11;;;;;;;16.30;6.25;;;;;;;;;;5056449;28;20024;-65
2024/01/28 00:53:37;;;;;;;10.52;5.65;;;;;;;;;;5050548;28;20032;-66
2024/01/28 00:56:02;;;;;;;12.10;5.95;;;;;;;;;;5054533;28;20020;-66
2024/01/28 00:58:29;;;;;;;10.13;6.10;;;;;;;;;;5053699;28;20051;-66
2024/01/28 01:00:54;;;;;;;8.43;5.25;;;;;;;;;;5054883;28;20061;-66
2024/01/28 01:03:19;;;;;;;9.95;6.78;;;;;;;;;;5063437;28;20020;-65
2024/01/28 01:05:46;;;;;;;10.73;5.22;;;;;;;;;;5053453;28;20795;-65
2024/01/28 01:08:11;;;;;;;14.07;5.50;;;;;;;;;;5050988;28;20078;-64
2024/01/28 01:10:36;;;;;;;13.90;5.28;;;;;;;;;;5049117;28;20024;-65
2024/01/28 01:13:02;;;;;;;16.67;6.55;;;;;;;;;;5057741;28;20356;-65
2024/01/28 01:15:28;;;;;;;10.38;5.78;;;;;;;;;;5055192;28;20885;-66
2024/01/28 01:17:53;;;;;;;8.38;5.18;;;;;;;;;;5060834;28;20035;-65
2024/01/28 01:20:18;;;;;;;8.50;5.63;;;;;;;;;;5057884;28;20063;-64
2024/01/28 01:22:44;;;;;;;9.30;5.53;;;;;;;;;;5049776;28;20028;-66
2024/01/28 01:25:12;;;;;;;8.35;5.35;;;;;;;;;;5051241;28;20112;-65
2024/01/28 01:27:37;;;;;;;10.77;5.05;;;;;;;;;;5053012;28;20036;-65
2024/01/28 01:30:02;;;;;;;11.07;5.43;;;;;;;;;;5062636;28;20084;-66
2024/01/28 01:32:28;;;;;;;12.43;5.32;;;;;;;;;;5051729;28;20921;-65
2024/01/28 01:34:53;;;;;;;9.52;5.35;;;;;;;;;;5052985;28;21039;-65
2024/01/28 01:37:18;;;;;;;10.73;4.72;;;;;;;;;;5059291;28;20047;-66
2024/01/28 01:39:43;;;;;;;9.70;5.30;;;;;;;;;;5038849;28;20058;-65
2024/01/28 01:42:09;;;;;;;9.23;4.68;;;;;;;;;;5065189;28;20016;-65
2024/01/28 01:44:34;;;;;;;12.80;5.65;;;;;;;;;;5059430;28;20023;-66
2024/01/28 01:46:59;;;;;;;9.73;5.07;;;;;;;;;;5060664;28;20933;-66
2024/01/28 01:49:24;;;;;;;9.57;4.78;;;;;;;;;;5059351;28;20853;-65
2024/01/28 01:51:50;;;;;;;13.65;4.95;;;;;;;;;;5051093;28;20138;-66
2024/01/28 01:54:16;;;;;;;9.80;4.90;;;;;;;;;;5055902;28;20914;-66
2024/01/28 01:56:41;;;;;;;7.13;4.68;;;;;;;;;;5057151;28;20024;-66
2024/01/28 01:59:06;;;;;;;7.55;4.35;;;;;;;;;;5060135;28;20026;-67
2024/01/28 02:01:32;;;;;;;9.57;5.15;;;;;;;;;;5058036;28;20134;-67
2024/01/28 02:03:58;;;;;;;13.52;5.00;;;;;;;;;;5053041;28;20948;-66
2024/01/28 02:06:24;;;;;;;7.40;4.63;;;;;;;;;;5060905;28;20019;-64
2024/01/28 02:08:49;;;;;;;8.43;4.60;;;;;;;;;;5059431;28;20140;-65
2024/01/28 02:11:15;;;;;;;7.45;4.28;;;;;;;;;;5063437;28;20051;-65
2024/01/28 02:13:40;;;;;;;11.13;4.75;;;;;;;;;;5061009;28;20128;-65
2024/01/28 02:16:06;;;;;;;15.77;4.72;;;;;;;;;;5062072;28;20824;-66
2024/01/28 02:18:31;;;;;;;8.13;4.28;;;;;;;;;;5057459;28;20788;-65
2024/01/28 02:20:57;;;;;;;9.80;4.50;;;;;;;;;;5050502;28;20032;-65
2024/01/28 02:23:22;;;;;;;7.63;4.57;;;;;;;;;;5051849;28;20063;-65
2024/01/28 02:25:50;;;;;;;9.20;4.55;;;;;;;;;;5062796;28;20979;-65
2024/01/28 02:28:16;;;;;;;8.40;4.90;;;;;;;;;;5052370;28;20032;-65
2024/01/28 02:30:41;;;;;;;11.50;4.80;;;;;;;;;;5048529;28;20046;-64
2024/01/28 02:33:06;;;;;;;8.27;4.50;;;;;;;;;;5049443;28;20016;-64
2024/01/28 02:35:32;;;;;;;14.93;5.20;;;;;;;;;;5059807;28;20024;-64
2024/01/28 02:37:57;;;;;;;8.82;4.25;;;;;;;;;;5055557;28;20869;-64
2024/01/28 02:40:22;;;;;;;7.82;4.28;;;;;;;;;;5055681;28;20778;-64
2024/01/28 02:42:48;;;;;;;8.02;4.13;;;;;;;;;;5051263;28;20805;-65
2024/01/28 02:45:13;;;;;;;11.93;4.70;;;;;;;;;;5054706;28;20043;-65
2024/01/28 02:47:38;;;;;;;13.07;4.93;;;;;;;;;;5059944;28;20036;-65
2024/01/28 02:50:04;;;;;;;8.07;4.68;;;;;;;;;;5043209;28;20019;-64
2024/01/28 02:52:29;;;;;;;11.73;5.00;;;;;;;;;;5060744;28;20038;-65
2024/01/28 02:54:54;;;;;;;8.40;4.15;;;;;;;;;;5049580;28;20054;-64
2024/01/28 02:57:20;;;;;;;6.60;4.20;;;;;;;;;;5056349;28;20865;-64
2024/01/28 02:59:45;;;;;;;10.88;4.22;;;;;;;;;;5062116;28;20027;-64
2024/01/28 03:02:10;;;;;;;9.00;5.03;;;;;;;;;;5062036;28;20020;-64
2024/01/28 03:04:36;;;;;;;10.13;5.15;;;;;;;;;;5048379;28;20962;-64
2024/01/28 03:07:02;;;;;;;12.48;4.68;;;;;;;;;;5056150;28;20051;-65
2024/01/28 03:09:27;;;;;;;9.00;5.30;;;;;;;;;;5053123;28;20890;-64
2024/01/28 03:11:52;;;;;;;11.70;4.43;;;;;;;;;;5048160;28;20062;-65
2024/01/28 03:14:18;;;;;;;9.25;4.90;;;;;;;;;;5062894;28;20295;-65
2024/01/28 03:16:43;;;;;;;6.30;4.07;;;;;;;;;;5065057;28;20027;-64
2024/01/28 03:19:08;;;;;;;8.60;5.07;;;;;;;;;;5056082;28;20027;-64
2024/01/28 03:21:33;;;;;;;15.55;4.97;;;;;;;;;;5062139;28;20142;-65
2024/01/28 03:23:58;;;;;;;8.77;5.05;;;;;;;;;;5062888;28;20034;-64
2024/01/28 03:26:24;;;;;;;8.00;4.65;;;;;;;;;;5052983;28;20024;-64
2024/01/28 03:28:49;;;;;;;13.05;4.88;;;;;;;;;;5057805;28;20035;-64
2024/01/28 03:31:14;;;;;;;10.80;5.63;;;;;;;;;;5057892;28;20096;-64
2024/01/28 03:33:40;;;;;;;7.30;3.88;;;;;;;;;;5064536;28;20020;-65
2024/01/28 03:36:05;;;;;;;13.10;4.93;;;;;;;;;;5063310;28;20016;-64
2024/01/28 03:38:30;;;;;;;11.80;5.75;;;;;;;;;;5068231;28;20916;-64
2024/01/28 03:40:56;;;;;;;11.98;5.18;;;;;;;;;;5055932;28;20053;-64
2024/01/28 03:43:21;;;;;;;9.20;5.60;;;;;;;;;;5051803;28;20759;-64
2024/01/28 03:45:46;;;;;;;9.27;4.90;;;;;;;;;;5063465;28;21585;-64
2024/01/28 03:48:11;;;;;;;8.33;5.60;;;;;;;;;;5055618;28;20916;-64
2024/01/28 03:50:37;;;;;;;9.55;5.80;;;;;;;;;;5056716;28;20284;-64
2024/01/28 03:53:02;;;;;;;10.32;5.70;;;;;;;;;;5058446;28;20031;-64
2024/01/28 03:55:27;;;;;;;9.70;5.78;;;;;;;;;;5060285;28;20876;-64
2024/01/28 03:57:52;;;;;;;9.10;5.35;;;;;;;;;;5060319;28;20030;-64
2024/01/28 04:00:28;;;;;;;8.45;5.13;;;;;;;;;;5040120;28;20846;-64
2024/01/28 04:02:53;;;;;;;11.13;5.93;;;;;;;;;;5060830;28;20027;-64
2024/01/28 04:05:18;;;;;;;10.30;5.43;;;;;;;;;;5066692;28;20877;-64
2024/01/28 04:07:44;;;;;;;7.53;4.68;;;;;;;;;;5062632;28;20074;-64
2024/01/28 04:10:13;;;;;;;11.27;6.18;;;;;;;;;;5063480;28;20517;-65
2024/01/28 04:12:38;;;;;;;10.93;6.10;;;;;;;;;;5061806;28;20031;-64
2024/01/28 04:15:04;;;;;;;11.13;5.28;;;;;;;;;;5061158;28;20927;-64
2024/01/28 04:17:29;;;;;;;8.82;5.20;;;;;;;;;;5063891;28;20540;-64
2024/01/28 04:19:54;;;;;;;10.05;5.32;;;;;;;;;;5054891;28;20952;-64
2024/01/28 04:22:20;;;;;;;9.73;5.43;;;;;;;;;;5063750;28;20924;-67
2024/01/28 04:24:45;;;;;;;9.27;5.65;;;;;;;;;;5065832;28;20893;-66
2024/01/28 04:27:10;;;;;;;10.07;5.75;;;;;;;;;;5063360;28;20842;-66
2024/01/28 04:29:35;;;;;;;20.70;6.30;;;;;;;;;;5057301;28;20838;-66
2024/01/28 04:32:00;;;;;;;10.35;5.47;;;;;;;;;;5060854;28;20032;-66
2024/01/28 04:34:26;;;;;;;10.10;5.40;;;;;;;;;;5059930;28;20012;-66
2024/01/28 04:36:51;;;;;;;11.07;6.63;;;;;;;;;;5060453;28;20031;-65
2024/01/28 04:39:16;;;;;;;11.05;5.82;;;;;;;;;;5061859;28;20846;-66
2024/01/28 04:41:41;;;;;;;11.32;5.55;;;;;;;;;;5055427;28;20869;-66
2024/01/28 04:44:07;;;;;;;12.07;6.25;;;;;;;;;;5056051;28;20882;-66
2024/01/28 04:46:33;;;;;;;12.65;5.88;;;;;;;;;;5060944;28;20890;-66
2024/01/28 04:49:00;;;;;;;11.65;5.93;;;;;;;;;;5058173;28;20128;-65
2024/01/28 04:51:28;;;;;;;11.30;5.97;;;;;;;;;;5053628;28;20493;-66
2024/01/28 04:53:53;;;;;;;9.10;5.88;;;;;;;;;;5063064;28;20054;-66
2024/01/28 04:56:18;;;;;;;13.15;6.40;;;;;;;;;;5059989;28;20125;-65
2024/01/28 04:58:44;;;;;;;14.13;6.25;;;;;;;;;;5048179;28;20060;-65
2024/01/28 05:01:09;;;;;;;12.60;6.47;;;;;;;;;;5062135;28;20024;-65
2024/01/28 05:03:34;;;;;;;9.63;5.82;;;;;;;;;;5051401;28;20032;-66
2024/01/28 05:05:59;;;;;;;10.98;6.35;;;;;;;;;;5054254;28;20028;-65
2024/01/28 05:08:25;;;;;;;12.93;6.47;;;;;;;;;;5063756;28;20031;-65
2024/01/28 05:10:50;;;;;;;15.10;6.20;;;;;;;;;;5054699;28;20860;-64
2024/01/28 05:13:16;;;;;;;10.65;6.43;;;;;;;;;;5055146;28;20126;-64
2024/01/28 05:15:42;;;;;;;11.27;6.50;;;;;;;;;;5055661;28;20108;-64
2024/01/28 05:18:08;;;;;;;14.85;6.57;;;;;;;;;;5062733;28;20107;-64
2024/01/28 05:20:33;;;;;;;12.85;7.10;;;;;;;;;;5056595;28;20818;-65
2024/01/28 05:22:59;;;;;;;10.15;5.82;;;;;;;;;;5055803;28;20025;-64
2024/01/28 05:25:25;;;;;;;11.55;6.15;;;;;;;;;;5061101;28;20027;-65
2024/01/28 05:27:51;;;;;;;16.40;7.30;;;;;;;;;;5062998;28;20032;-64
2024/01/28 05:30:17;;;;;;;13.32;5.90;;;;;;;;;;5063742;28;20067;-64
2024/01/28 05:32:43;;;;;;;10.73;5.95;;;;;;;;;;5051592;28;20036;-66
2024/01/28 05:35:08;;;;;;;12.80;6.03;;;;;;;;;;5053968;28;20043;-65
2024/01/28 05:37:33;;;;;;;13.43;6.28;;;;;;;;;;5054706;28;20933;-65
2024/01/28 05:39:58;;;;;;;11.20;6.03;;;;;;;;;;5061326;28;20873;-65
2024/01/28 05:42:23;;;;;;;10.20;5.55;;;;;;;;;;5054773;28;20945;-64
2024/01/28 05:44:49;;;;;;;12.20;6.28;;;;;;;;;;5053519;28;20051;-64
2024/01/28 05:47:14;;;;;;;10.55;5.80;;;;;;;;;;5063842;28;20051;-64
2024/01/28 05:49:39;;;;;;;8.38;5.40;;;;;;;;;;5053764;28;20026;-65
2024/01/28 05:52:05;;;;;;;9.88;5.45;;;;;;;;;;5061752;28;20020;-65
2024/01/28 05:54:30;;;;;;;11.20;5.70;;;;;;;;;;5053893;28;20012;-65
2024/01/28 05:56:55;;;;;;;11.60;5.45;;;;;;;;;;5052959;28;20055;-64
2024/01/28 05:59:21;;;;;;;9.90;6.00;;;;;;;;;;5061466;28;20045;-64
2024/01/28 06:01:46;;;;;;;9.32;5.57;;;;;;;;;;5065667;28;20877;-65
2024/01/28 06:04:11;;;;;;;10.18;5.82;;;;;;;;;;5035012;28;20877;-65
2024/01/28 06:06:36;;;;;;;10.82;6.30;;;;;;;;;;5058578;28;20849;-65
2024/01/28 06:09:02;;;;;;;11.57;5.80;;;;;;;;;;5054207;28;20050;-64
2024/01/28 06:11:27;;;;;;;11.88;5.90;;;;;;;;;;5061238;28;20055;-63
2024/01/28 06:13:53;;;;;;;10.68;6.65;;;;;;;;;;5050591;28;20168;-64
2024/01/28 06:16:18;;;;;;;14.05;5.85;;;;;;;;;;5050652;28;20027;-64
2024/01/28 06:18:43;;;;;;;11.15;5.22;;;;;;;;;;5056137;28;20051;-64
2024/01/28 06:21:11;;;;;;;14.15;6.10;;;;;;;;;;5062818;28;20068;-63
2024/01/28 06:23:37;;;;;;;18.23;6.97;;;;;;;;;;5059749;28;20031;-64
2024/01/28 06:26:02;;;;;;;8.75;5.38;;;;;;;;;;5053793;28;20160;-64
2024/01/28 06:28:27;;;;;;;11.90;5.82;;;;;;;;;;5055935;28;20963;-64
2024/01/28 06:30:53;;;;;;;12.30;6.10;;;;;;;;;;5054111;28;20034;-65
2024/01/28 06:33:18;;;;;;;12.18;5.45;;;;;;;;;;5051926;28;20088;-63
2024/01/28 06:35:43;;;;;;;12.82;5.70;;;;;;;;;;5056380;28;20031;-63
2024/01/28 06:38:08;;;;;;;17.00;5.78;;;;;;;;;;5047464;28;20023;-64
2024/01/28 06:40:34;;;;;;;11.70;4.93;;;;;;;;;;5056224;28;20127;-64
2024/01/28 06:42:59;;;;;;;7.97;5.35;;;;;;;;;;5054808;28;20022;-65
2024/01/28 06:45:24;;;;;;;11.02;5.72;;;;;;;;;;5060196;28;20850;-65
2024/01/28 06:47:50;;;;;;;13.75;5.28;;;;;;;;;;5061256;28;20544;-64
2024/01/28 06:50:15;;;;;;;12.43;5.43;;;;;;;;;;5059530;28;20055;-64
2024/01/28 06:52:43;;;;;;;15.80;5.03;;;;;;;;;;5055180;28;20897;-65
2024/01/28 06:55:09;;;;;;;10.82;6.28;;;;;;;;;;5049206;28;20024;-65
2024/01/28 06:57:34;;;;;;;7.20;5.18;;;;;;;;;;5055510;28;20889;-65
2024/01/28 06:59:59;;;;;;;7.60;5.15;;;;;;;;;;5058233;28;20023;-64
2024/01/28 07:02:25;;;;;;;11.27;5.18;;;;;;;;;;5055872;28;20024;-65
2024/01/28 07:04:50;;;;;;;11.98;5.43;;;;;;;;;;5047212;28;20055;-64
2024/01/28 07:07:16;;;;;;;9.55;5.15;;;;;;;;;;5059868;28;20041;-65
2024/01/28 07:09:41;;;;;;;9.48;5.07;;;;;;;;;;5053340;28;20882;-65
2024/01/28 07:12:08;;;;;;;9.38;4.75;;;;;;;;;;5065331;28;20867;-64
2024/01/28 07:14:33;;;;;;;9.15;5.22;;;;;;;;;;5065075;28;20024;-64
2024/01/28 07:16:59;;;;;;;12.85;5.05;;;;;;;;;;5061998;28;20024;-65
2024/01/28 07:19:24;;;;;;;14.88;6.40;;;;;;;;;;5052163;28;20027;-64
2024/01/28 07:21:51;;;;;;;9.10;5.07;;;;;;;;;;5061451;28;20140;-64
2024/01/28 07:24:16;;;;;;;11.23;5.47;;;;;;;;;;5064461;28;20016;-62
2024/01/28 07:26:43;;;;;;;11.55;5.45;;;;;;;;;;5063226;28;20924;-64
2024/01/28 07:29:08;;;;;;;9.68;5.20;;;;;;;;;;5051729;28;20812;-64
2024/01/28 07:31:33;;;;;;;10.35;4.72;;;;;;;;;;5059635;28;20054;-63
2024/01/28 07:33:59;;;;;;;11.10;5.90;;;;;;;;;;5059165;28;20065;-64
2024/01/28 07:36:24;;;;;;;7.82;4.60;;;;;;;;;;5059160;28;20135;-65
2024/01/28 07:38:49;;;;;;;9.38;5.30;;;;;;;;;;5048754;28;21028;-65
2024/01/28 07:41:15;;;;;;;12.77;5.93;;;;;;;;;;5061782;28;20876;-65
2024/01/28 07:43:41;;;;;;;10.23;5.22;;;;;;;;;;5052484;28;20142;-65
2024/01/28 07:46:07;;;;;;;10.70;5.38;;;;;;;;;;5059139;28;20017;-65
2024/01/28 07:48:32;;;;;;;8.23;3.90;;;;;;;;;;5046827;28;20038;-64
2024/01/28 07:50:57;;;;;;;9.45;4.50;;;;;;;;;;5059254;28;20121;-64
2024/01/28 07:53:22;;;;;;;9.20;5.38;;;;;;;;;;5064411;28;20015;-65
2024/01/28 07:55:48;;;;;;;10.77;4.63;;;;;;;;;;5056643;28;20928;-64
2024/01/28 07:58:13;;;;;;;8.23;4.60;;;;;;;;;;5050208;28;20036;-64
2024/01/28 08:00:38;;;;;;;11.77;5.63;;;;;;;;;;5064255;28;20032;-64
2024/01/28 08:03:03;;;;;;;11.68;5.30;;;;;;;;;;5052744;28;20984;-64
2024/01/28 08:05:28;;;;;;;12.15;5.28;;;;;;;;;;5067476;28;20842;-64
2024/01/28 08:07:54;;;;;;;11.70;5.53;;;;;;;;;;5064970;28;20858;-64
2024/01/28 08:10:19;;;;;;;8.50;5.28;;;;;;;;;;5050115;28;20015;-64
2024/01/28 08:12:44;;;;;;;10.88;5.88;;;;;;;;;;5054736;28;20023;-64
2024/01/28 08:15:09;;;;;;;12.95;4.80;;;;;;;;;;5059671;28;20020;-64
2024/01/28 08:17:35;;;;;;;12.90;5.55;;;;;;;;;;5061891;28;20031;-64
2024/01/28 08:20:00;;;;;;;10.85;4.82;;;;;;;;;;5063704;28;20028;-64
2024/01/28 08:22:25;;;;;;;10.35;5.65;;;;;;;;;;5050297;28;20070;-64
2024/01/28 08:24:51;;;;;;;9.88;4.70;;;;;;;;;;5052833;28;20036;-64
2024/01/28 08:27:17;;;;;;;11.18;6.03;;;;;;;;;;5065857;28;20083;-64
2024/01/28 08:29:42;;;;;;;8.90;5.60;;;;;;;;;;5061963;28;20023;-64
2024/01/28 08:32:07;;;;;;;8.55;5.03;;;;;;;;;;5057143;28;20192;-64
2024/01/28 08:34:33;;;;;;;9.75;4.63;;;;;;;;;;5057204;28;20931;-63
2024/01/28 08:36:58;;;;;;;11.52;5.25;;;;;;;;;;5056441;28;20031;-63
2024/01/28 08:39:24;;;;;;;8.27;4.85;;;;;;;;;;5053682;28;20023;-63
2024/01/28 08:41:49;;;;;;;10.60;5.28;;;;;;;;;;5052468;28;20924;-64
2024/01/28 08:44:15;;;;;;;7.68;4.82;;;;;;;;;;5054615;28;20869;-63
2024/01/28 08:46:40;;;;;;;13.02;5.53;;;;;;;;;;5036801;28;20028;-64
2024/01/28 08:49:06;;;;;;;11.65;4.70;;;;;;;;;;5039883;28;20784;-64
2024/01/28 08:51:31;;;;;;;10.88;5.70;;;;;;;;;;5062500;28;20065;-65
2024/01/28 08:53:56;;;;;;;11.52;5.75;;;;;;;;;;5059938;28;20860;-64
2024/01/28 08:56:21;;;;;;;9.15;5.43;;;;;;;;;;5062226;28;20923;-64
2024/01/28 08:58:46;;;;;;;9.35;4.90;;;;;;;;;;5064202;28;20138;-64
2024/01/28 09:01:13;;;;;;;11.60;5.55;;;;;;;;;;5061294;28;20023;-65
2024/01/28 09:03:38;;;;;;;9.52;5.45;;;;;;;;;;5059940;28;20089;-65
2024/01/28 09:06:05;;;;;;;11.65;6.40;;;;;;;;;;5061621;28;20187;-64
2024/01/28 09:08:30;;;;;;;15.63;6.20;;;;;;;;;;5061178;28;20069;-64
2024/01/28 09:10:56;;;;;;;12.73;5.68;;;;;;;;;;5059168;28;20060;-64
2024/01/28 09:13:21;;;;;;;13.98;6.18;;;;;;;;;;5052841;28;20089;-64
2024/01/28 09:15:47;;;;;;;10.77;4.88;;;;;;;;;;5064087;28;20934;-63
2024/01/28 09:18:12;;;;;;;11.55;5.03;;;;;;;;;;5056570;28;20777;-63
2024/01/28 09:20:37;;;;;;;10.68;5.80;;;;;;;;;;5061848;28;20033;-64
2024/01/28 09:23:04;;;;;;;9.05;4.82;;;;;;;;;;5062860;28;20024;-64
2024/01/28 09:25:29;;;;;;;13.98;7.57;;;;;;;;;;5053516;28;20296;-63
2024/01/28 09:27:55;;;;;;;21.50;11.15;;;;;;;;;;5058959;28;20028;-64
2024/01/28 09:30:20;;;;;;;23.33;12.15;;;;;;;;;;5057750;28;20028;-63
2024/01/28 09:32:46;;;;;;;22.20;12.50;;;;;;;;;;5055902;28;20028;-63
2024/01/28 09:35:11;;;;;;;17.77;11.40;;;;;;;;;;5052724;28;20144;-64
2024/01/28 09:37:37;;;;;;;18.33;11.48;;;;;;;;;;5059858;28;20913;-64
2024/01/28 09:40:02;;;;;;;19.52;11.25;;;;;;;;;;5054553;28;20037;-64
2024/01/28 09:42:27;;;;;;;15.45;9.77;;;;;;;;;;5066731;28;20130;-65
2024/01/28 09:44:53;;;;;;;16.60;9.18;;;;;;;;;;5057797;28;21337;-64
2024/01/28 09:47:18;;;;;;;12.13;7.35;;;;;;;;;;5058055;28;20961;-65
2024/01/28 09:49:44;;;;;;;12.32;6.65;;;;;;;;;;5066573;28;20102;-65
2024/01/28 09:52:10;;;;;;;10.32;5.50;;;;;;;;;;5066512;28;20113;-64
2024/01/28 09:54:36;;;;;;;9.45;5.07;;;;;;;;;;5056575;28;20028;-65
2024/01/28 09:57:02;;;;;;;10.07;5.15;;;;;;;;;;5051004;28;20135;-65
2024/01/28 09:59:27;;;;;;;7.45;4.63;;;;;;;;;;5051524;28;20034;-65
2024/01/28 10:01:53;;;;;;;7.30;4.45;;;;;;;;;;5060400;28;20049;-64
2024/01/28 10:04:18;;;;;;;7.88;4.05;;;;;;;;;;5055329;28;20032;-65
2024/01/28 10:06:43;;;;;;;10.70;4.43;;;;;;;;;;5055763;28;20028;-65
2024/01/28 10:09:09;;;;;;;9.23;4.57;;;;;;;;;;5053461;28;20166;-64
2024/01/28 10:11:35;;;;;;;6.63;4.10;;;;;;;;;;5062740;28;20938;-64
2024/01/28 10:14:00;;;;;;;6.60;4.18;;;;;;;;;;5049850;28;20020;-63
2024/01/28 10:16:30;;;;;;;7.80;4.68;;;;;;;;;;5054258;28;20077;-64
2024/01/28 10:18:55;;;;;;;7.65;3.90;;;;;;;;;;5048969;28;20109;-64
2024/01/28 10:21:20;;;;;;;11.00;5.13;;;;;;;;;;5057168;28;20857;-64
2024/01/28 10:23:45;;;;;;;7.53;4.40;;;;;;;;;;5049729;28;21252;-64
2024/01/28 10:26:11;;;;;;;7.53;4.38;;;;;;;;;;5051037;28;20905;-64
2024/01/28 10:28:39;;;;;;;10.97;4.40;;;;;;;;;;5052748;28;20206;-64
2024/01/28 10:31:05;;;;;;;8.05;4.20;;;;;;;;;;5056091;28;20262;-65
2024/01/28 10:33:30;;;;;;;8.13;4.20;;;;;;;;;;5058596;28;20134;-65
2024/01/28 10:35:59;;;;;;;9.05;4.00;;;;;;;;;;5058997;28;20119;-65
2024/01/28 10:38:25;;;;;;;8.10;4.57;;;;;;;;;;5061245;28;20035;-64
2024/01/28 10:40:51;;;;;;;6.07;3.67;;;;;;;;;;5059154;28;20023;-63
2024/01/28 10:43:18;;;;;;;13.43;4.30;;;;;;;;;;5049756;28;20051;-65
2024/01/28 10:45:45;;;;;;;8.13;4.43;;;;;;;;;;5059400;28;20026;-64
2024/01/28 10:48:12;;;;;;;10.30;4.78;;;;;;;;;;5058299;28;20206;-64
2024/01/28 10:50:38;;;;;;;11.60;5.00;;;;;;;;;;5038455;28;20793;-63
2024/01/28 10:53:04;;;;;;;10.05;5.40;;;;;;;;;;5058666;28;20055;-62
2024/01/28 10:55:30;;;;;;;11.15;4.82;;;;;;;;;;5051814;28;20027;-62
2024/01/28 10:57:56;;;;;;;8.13;3.92;;;;;;;;;;5054394;28;20027;-63
2024/01/28 11:00:21;;;;;;;7.90;3.92;;;;;;;;;;5054994;28;20128;-63
2024/01/28 11:02:47;;;;;;;9.65;4.43;;;;;;;;;;5062828;28;20796;-63
2024/01/28 11:05:13;;;;;;;7.97;3.63;;;;;;;;;;5037503;28;20973;-63
2024/01/28 11:07:38;;;;;;;9.38;4.18;;;;;;;;;;5039303;28;20023;-63
2024/01/28 11:10:05;;;;;;;8.82;3.55;;;;;;;;;;5059605;28;20154;-64
2024/01/28 11:12:30;;;;;;;5.85;2.90;;;;;;;;;;5060286;28;20034;-63
2024/01/28 11:14:59;;;;;;;9.40;3.03;;;;;;;;;;5057565;28;20102;-63
2024/01/28 11:17:32;;;;;;;7.22;3.00;;;;;;;;;;5061842;28;20023;-63
2024/01/28 11:20:07;;;;;;;4.57;3.00;;;;;;;;;;5047270;28;20047;-64
2024/01/28 11:22:46;;;;;;;7.88;3.30;;;;;;;;;;5062132;28;20308;-62
2024/01/28 11:25:15;;;;;;;5.43;3.00;;;;;;;;;;5056633;28;20992;-65
2024/01/28 11:27:41;;;;;;;9.23;3.20;;;;;;;;;;5052758;28;20016;-64
2024/01/28 11:30:09;;;;;;;4.88;2.85;;;;;;;;;;5056464;28;20031;-64
2024/01/28 11:32:34;;;;;;;6.38;3.20;;;;;;;;;;5058740;28;20027;-65
2024/01/28 11:35:00;;;;;;;7.07;3.58;;;;;;;;;;5058558;28;20953;-66
2024/01/28 11:37:27;;;;;;;5.90;3.08;;;;;;;;;;5053604;28;20028;-67
2024/01/28 11:39:55;;;;;;;7.65;3.20;;;;;;;;;;5058356;28;20807;-62
2024/01/28 11:42:20;;;;;;;5.22;2.85;;;;;;;;;;5058433;28;20022;-64
2024/01/28 11:44:46;;;;;;;9.18;3.53;;;;;;;;;;5060966;28;20818;-65
2024/01/28 11:47:13;;;;;;;5.15;3.05;;;;;;;;;;5054413;28;20038;-63
2024/01/28 11:49:38;;;;;;;9.27;3.60;;;;;;;;;;5058601;28;20119;-65
2024/01/28 11:52:05;;;;;;;7.47;3.97;;;;;;;;;;5047778;28;20883;-65
2024/01/28 11:54:30;;;;;;;7.50;3.08;;;;;;;;;;5051801;28;20096;-66
2024/01/28 11:56:56;;;;;;;6.70;2.88;;;;;;;;;;5063965;28;20130;-64
2024/01/28 11:59:22;;;;;;;5.95;2.83;;;;;;;;;;5061037;28;20221;-64
2024/01/28 12:01:47;;;;;;;5.78;3.08;;;;;;;;;;5062005;28;20636;-64
2024/01/28 12:04:13;;;;;;;5.97;2.80;;;;;;;;;;5054615;28;20962;-65
2024/01/28 12:06:38;;;;;;;8.05;3.17;;;;;;;;;;5064605;28;20031;-64
2024/01/28 12:09:03;;;;;;;4.32;2.72;;;;;;;;;;5060824;28;20042;-65
2024/01/28 12:11:29;;;;;;;6.13;3.20;;;;;;;;;;5060388;28;20078;-65
2024/01/28 12:13:54;;;;;;;5.70;2.92;;;;;;;;;;5061146;28;20020;-64
2024/01/28 12:16:21;;;;;;;5.70;3.20;;;;;;;;;;5060521;28;20024;-65
2024/01/28 12:18:47;;;;;;;6.88;3.10;;;;;;;;;;5051883;28;20044;-65
2024/01/28 12:21:17;;;;;;;6.20;3.17;;;;;;;;;;5056067;28;20040;-65
2024/01/28 12:23:52;;;;;;;6.82;2.85;;;;;;;;;;5054719;28;20032;-65
2024/01/28 12:26:17;;;;;;;;;;;;;;;;;;5061374;28;20058;-64
2024/01/28 12:28:46;;;;;;;6.43;2.93;;;;;;;;;;5062782;28;19916;-65
2024/01/28 12:31:11;;;;;;;7.10;3.40;;;;;;;;;;5057914;28;20281;-65
2024/01/28 12:33:36;;;;;;;7.18;3.03;;;;;;;;;;5057900;28;20035;-65
2024/01/28 12:36:02;;;;;;;4.20;2.50;;;;;;;;;;5052205;28;20024;-65
2024/01/28 12:38:27;;;;;;;6.88;3.10;;;;;;;;;;5064271;28;20828;-65
2024/01/28 12:40:53;;;;;;;6.43;2.92;;;;;;;;;;5061278;28;20089;-65
2024/01/28 12:43:18;;;;;;;8.13;3.05;;;;;;;;;;5061566;28;20830;-65
2024/01/28 12:45:43;;;;;;;5.03;2.83;;;;;;;;;;5053941;28;20038;-62
2024/01/28 12:48:08;;;;;;;7.07;3.08;;;;;;;;;;5065691;28;20285;-65
2024/01/28 12:50:34;;;;;;;5.40;3.10;;;;;;;;;;5061979;28;20031;-65
2024/01/28 12:52:59;;;;;;;4.68;2.65;;;;;;;;;;5050585;28;20020;-65
2024/01/28 12:55:24;;;;;;;4.95;2.53;;;;;;;;;;5061825;28;20051;-66
2024/01/28 12:57:50;;;;;;;6.75;2.78;;;;;;;;;;5034098;28;20036;-64
2024/01/28 13:00:16;;;;;;;4.90;2.65;;;;;;;;;;5059026;28;20135;-64
2024/01/28 13:02:42;;;;;;;5.93;2.78;;;;;;;;;;5059034;28;20031;-64
2024/01/28 13:05:08;;;;;;;4.10;2.30;;;;;;;;;;5055737;28;20023;-64
2024/01/28 13:07:33;;;;;;;5.78;2.55;;;;;;;;;;5061302;28;20133;-64
2024/01/28 13:09:59;;;;;;;5.72;2.83;;;;;;;;;;5054070;28;20059;-65
2024/01/28 13:12:24;;;;;;;7.00;2.93;;;;;;;;;;5060151;28;20526;-65
2024/01/28 13:14:50;;;;;;;4.05;2.53;;;;;;;;;;5052727;28;21201;-65
2024/01/28 13:17:15;;;;;;;5.28;2.63;;;;;;;;;;5053775;28;20095;-65
2024/01/28 13:19:40;;;;;;;5.45;2.78;;;;;;;;;;5034579;28;20057;-65
2024/01/28 13:22:05;;;;;;;6.28;2.47;;;;;;;;;;5055293;28;20024;-66
2024/01/28 13:24:31;;;;;;;5.10;2.70;;;;;;;;;;5056630;28;20015;-65
2024/01/28 13:26:56;;;;;;;4.70;2.58;;;;;;;;;;5064680;28;20027;-65
2024/01/28 13:29:22;;;;;;;5.10;2.33;;;;;;;;;;5053961;28;21005;-65
2024/01/28 13:31:48;;;;;;;4.90;2.63;;;;;;;;;;5060076;28;20027;-65
2024/01/28 13:34:13;;;;;;;5.88;2.88;;;;;;;;;;5060838;28;20059;-65
2024/01/28 13:36:38;;;;;;;5.65;2.60;;;;;;;;;;5055516;28;20052;-65
2024/01/28 13:39:03;;;;;;;5.40;2.90;;;;;;;;;;5049107;28;20060;-65
2024/01/28 13:41:29;;;;;;;8.75;2.63;;;;;;;;;;5060085;28;20381;-64
2024/01/28 13:43:54;;;;;;;4.07;2.13;;;;;;;;;;5060714;28;20036;-65
2024/01/28 13:46:19;;;;;;;6.82;3.03;;;;;;;;;;5049391;28;20316;-65
2024/01/28 13:48:44;;;;;;;7.35;3.08;;;;;;;;;;5054877;28;20537;-64
2024/01/28 13:51:10;;;;;;;4.73;2.63;;;;;;;;;;5059350;28;20023;-65
2024/01/28 13:53:35;;;;;;;5.93;3.08;;;;;;;;;;5048151;28;20347;-65
2024/01/28 13:56:02;;;;;;;7.57;2.88;;;;;;;;;;5057087;28;20015;-66
2024/01/28 13:58:27;;;;;;;7.18;2.90;;;;;;;;;;5061440;28;20899;-65
2024/01/28 14:00:52;;;;;;;5.40;2.50;;;;;;;;;;5054656;28;20035;-65
2024/01/28 14:03:18;;;;;;;6.57;2.77;;;;;;;;;;5061318;28;20281;-64
2024/01/28 14:05:44;;;;;;;6.80;2.65;;;;;;;;;;5050732;28;20343;-64
2024/01/28 14:08:11;;;;;;;5.47;2.80;;;;;;;;;;5057938;28;20027;-64
2024/01/28 14:10:36;;;;;;;8.75;3.25;;;;;;;;;;5051505;28;20055;-64
2024/01/28 14:13:02;;;;;;;6.78;2.70;;;;;;;;;;5029012;28;20020;-64
2024/01/28 14:15:27;;;;;;;6.13;3.05;;;;;;;;;;5051755;28;20998;-65
2024/01/28 14:17:52;;;;;;;6.30;2.72;;;;;;;;;;5052006;28;20028;-65
2024/01/28 14:20:17;;;;;;;4.77;2.60;;;;;;;;;;5060596;28;20768;-65
2024/01/28 14:22:43;;;;;;;5.53;2.88;;;;;;;;;;5060034;28;20273;-65
2024/01/28 14:25:08;;;;;;;6.07;2.90;;;;;;;;;;5062751;28;20043;-65